Johnstown, Ohio
Current Conditions -  °F | °C
As of 11:51 AM on Thursday 30 Oct 2014 (Local Time) from KCMH Reporting Station
Broken Clouds Broken Clouds  
Wind Chill:   Ceiling: 4300
Heat Index:   Visibility: 10mi
Dew Point:   Wind: 3mph
Humidity: 58%   Direction: 240°WSW
Pressure: 30.15"   Gusts: NA
Location:  40.15°N, 82.69°W
Report Text: KCMH 301551Z 24003KT 10SM FEW028 BKN043 09/01 A3015 RMK AO2 SLP211 T00890011
Loading
Personal Weather Stations






























Interactive Weather Map
Tropical Storm Tracking
New forecast layout! Learn more

10-Day Weather Forecast

Advertisements
Track Severe Weather on mobile